sensor_id;sensor_type;location;lat;lon;timestamp;P1;durP1;ratioP1;P2;durP2;ratioP2
3653;SDS011;70277;54.302;10.064;2024-01-16T00:02:07;4.55;;;2.53;;
3653;SDS011;70277;54.302;10.064;2024-01-16T00:04:37;5.25;;;2.58;;
3653;SDS011;70277;54.302;10.064;2024-01-16T00:07:04;6.22;;;2.65;;
3653;SDS011;70277;54.302;10.064;2024-01-16T00:09:34;3.50;;;2.67;;
3653;SDS011;70277;54.302;10.064;2024-01-16T00:12:04;9.13;;;2.63;;
3653;SDS011;70277;54.302;10.064;2024-01-16T00:14:30;6.55;;;3.70;;
3653;SDS011;70277;54.302;10.064;2024-01-16T00:17:02;7.40;;;3.13;;
3653;SDS011;70277;54.302;10.064;2024-01-16T00:19:29;7.05;;;3.20;;
3653;SDS011;70277;54.302;10.064;2024-01-16T00:21:56;5.32;;;3.45;;
3653;SDS011;70277;54.302;10.064;2024-01-16T00:24:22;5.43;;;3.40;;
3653;SDS011;70277;54.302;10.064;2024-01-16T00:26:49;5.13;;;3.30;;
3653;SDS011;70277;54.302;10.064;2024-01-16T00:29:17;8.18;;;3.20;;
3653;SDS011;70277;54.302;10.064;2024-01-16T00:31:43;12.43;;;3.35;;
3653;SDS011;70277;54.302;10.064;2024-01-16T00:34:10;5.25;;;3.47;;
3653;SDS011;70277;54.302;10.064;2024-01-16T00:36:36;6.78;;;2.90;;
3653;SDS011;70277;54.302;10.064;2024-01-16T00:39:03;7.72;;;3.60;;
3653;SDS011;70277;54.302;10.064;2024-01-16T00:41:30;6.60;;;3.00;;
3653;SDS011;70277;54.302;10.064;2024-01-16T00:43:56;6.65;;;3.30;;
3653;SDS011;70277;54.302;10.064;2024-01-16T00:46:23;6.82;;;3.78;;
3653;SDS011;70277;54.302;10.064;2024-01-16T00:48:49;5.38;;;3.28;;
3653;SDS011;70277;54.302;10.064;2024-01-16T00:51:16;8.70;;;3.75;;
3653;SDS011;70277;54.302;10.064;2024-01-16T00:53:43;7.53;;;3.50;;
3653;SDS011;70277;54.302;10.064;2024-01-16T00:56:10;8.07;;;3.95;;
3653;SDS011;70277;54.302;10.064;2024-01-16T00:58:37;7.07;;;4.05;;
3653;SDS011;70277;54.302;10.064;2024-01-16T01:01:04;6.45;;;3.58;;
3653;SDS011;70277;54.302;10.064;2024-01-16T01:03:30;6.65;;;3.72;;
3653;SDS011;70277;54.302;10.064;2024-01-16T01:05:57;8.05;;;4.35;;
3653;SDS011;70277;54.302;10.064;2024-01-16T01:08:24;5.07;;;3.65;;
3653;SDS011;70277;54.302;10.064;2024-01-16T01:10:51;5.80;;;3.55;;
3653;SDS011;70277;54.302;10.064;2024-01-16T01:13:17;6.65;;;3.72;;
3653;SDS011;70277;54.302;10.064;2024-01-16T01:15:44;10.00;;;4.28;;
3653;SDS011;70277;54.302;10.064;2024-01-16T01:18:11;8.23;;;4.13;;
3653;SDS011;70277;54.302;10.064;2024-01-16T01:20:37;11.60;;;3.88;;
3653;SDS011;70277;54.302;10.064;2024-01-16T01:23:04;11.13;;;5.00;;
3653;SDS011;70277;54.302;10.064;2024-01-16T01:25:30;6.22;;;4.13;;
3653;SDS011;70277;54.302;10.064;2024-01-16T01:27:57;10.07;;;4.32;;
3653;SDS011;70277;54.302;10.064;2024-01-16T01:30:23;11.10;;;4.22;;
3653;SDS011;70277;54.302;10.064;2024-01-16T01:32:50;13.45;;;4.97;;
3653;SDS011;70277;54.302;10.064;2024-01-16T01:35:17;8.63;;;4.60;;
3653;SDS011;70277;54.302;10.064;2024-01-16T01:37:46;13.32;;;5.03;;
3653;SDS011;70277;54.302;10.064;2024-01-16T01:40:12;13.10;;;4.72;;
3653;SDS011;70277;54.302;10.064;2024-01-16T01:42:42;11.52;;;5.45;;
3653;SDS011;70277;54.302;10.064;2024-01-16T01:45:09;16.85;;;4.97;;
3653;SDS011;70277;54.302;10.064;2024-01-16T01:47:39;11.38;;;5.70;;
3653;SDS011;70277;54.302;10.064;2024-01-16T01:50:10;9.13;;;5.55;;
3653;SDS011;70277;54.302;10.064;2024-01-16T01:52:38;9.77;;;5.22;;
3653;SDS011;70277;54.302;10.064;2024-01-16T01:55:07;8.35;;;5.13;;
3653;SDS011;70277;54.302;10.064;2024-01-16T01:57:39;14.98;;;5.13;;
3653;SDS011;70277;54.302;10.064;2024-01-16T02:00:09;7.93;;;4.85;;
3653;SDS011;70277;54.302;10.064;2024-01-16T02:02:36;7.00;;;5.25;;
3653;SDS011;70277;54.302;10.064;2024-01-16T02:05:02;10.68;;;5.13;;
3653;SDS011;70277;54.302;10.064;2024-01-16T02:07:30;16.23;;;4.85;;
3653;SDS011;70277;54.302;10.064;2024-01-16T02:09:59;10.02;;;5.03;;
3653;SDS011;70277;54.302;10.064;2024-01-16T02:12:26;10.85;;;4.72;;
3653;SDS011;70277;54.302;10.064;2024-01-16T02:14:53;9.00;;;4.93;;
3653;SDS011;70277;54.302;10.064;2024-01-16T02:17:19;10.05;;;4.30;;
3653;SDS011;70277;54.302;10.064;2024-01-16T02:19:46;7.57;;;4.47;;
3653;SDS011;70277;54.302;10.064;2024-01-16T02:22:15;7.05;;;4.90;;
3653;SDS011;70277;54.302;10.064;2024-01-16T02:24:46;10.05;;;5.35;;
3653;SDS011;70277;54.302;10.064;2024-01-16T02:27:12;9.98;;;4.63;;
3653;SDS011;70277;54.302;10.064;2024-01-16T02:29:42;11.10;;;5.00;;
3653;SDS011;70277;54.302;10.064;2024-01-16T02:32:10;13.57;;;5.00;;
3653;SDS011;70277;54.302;10.064;2024-01-16T02:34:39;11.88;;;5.40;;
3653;SDS011;70277;54.302;10.064;2024-01-16T02:37:05;14.98;;;5.82;;
3653;SDS011;70277;54.302;10.064;2024-01-16T02:39:32;16.02;;;5.43;;
3653;SDS011;70277;54.302;10.064;2024-01-16T02:41:59;10.32;;;5.25;;
3653;SDS011;70277;54.302;10.064;2024-01-16T02:44:25;8.90;;;5.38;;
3653;SDS011;70277;54.302;10.064;2024-01-16T02:46:52;9.20;;;5.28;;
3653;SDS011;70277;54.302;10.064;2024-01-16T02:49:18;10.43;;;5.60;;
3653;SDS011;70277;54.302;10.064;2024-01-16T02:51:45;9.60;;;5.13;;
3653;SDS011;70277;54.302;10.064;2024-01-16T02:54:11;8.73;;;5.40;;
3653;SDS011;70277;54.302;10.064;2024-01-16T02:56:38;11.15;;;5.50;;
3653;SDS011;70277;54.302;10.064;2024-01-16T02:59:04;15.93;;;5.25;;
3653;SDS011;70277;54.302;10.064;2024-01-16T03:01:31;11.45;;;4.53;;
3653;SDS011;70277;54.302;10.064;2024-01-16T03:03:58;14.25;;;5.45;;
3653;SDS011;70277;54.302;10.064;2024-01-16T03:06:24;7.40;;;4.43;;
3653;SDS011;70277;54.302;10.064;2024-01-16T03:08:51;8.25;;;4.53;;
3653;SDS011;70277;54.302;10.064;2024-01-16T03:11:18;12.65;;;5.55;;
3653;SDS011;70277;54.302;10.064;2024-01-16T03:13:45;11.60;;;5.70;;
3653;SDS011;70277;54.302;10.064;2024-01-16T03:16:12;8.63;;;5.38;;
3653;SDS011;70277;54.302;10.064;2024-01-16T03:18:38;16.95;;;5.95;;
3653;SDS011;70277;54.302;10.064;2024-01-16T03:21:05;12.70;;;5.28;;
3653;SDS011;70277;54.302;10.064;2024-01-16T03:23:32;7.45;;;4.82;;
3653;SDS011;70277;54.302;10.064;2024-01-16T03:25:59;20.27;;;5.40;;
3653;SDS011;70277;54.302;10.064;2024-01-16T03:28:25;10.60;;;5.15;;
3653;SDS011;70277;54.302;10.064;2024-01-16T03:30:52;10.27;;;5.78;;
3653;SDS011;70277;54.302;10.064;2024-01-16T03:33:20;17.30;;;5.53;;
3653;SDS011;70277;54.302;10.064;2024-01-16T03:35:47;10.55;;;5.43;;
3653;SDS011;70277;54.302;10.064;2024-01-16T03:38:13;13.27;;;6.10;;
3653;SDS011;70277;54.302;10.064;2024-01-16T03:40:40;13.73;;;5.30;;
3653;SDS011;70277;54.302;10.064;2024-01-16T03:43:07;10.45;;;4.78;;
3653;SDS011;70277;54.302;10.064;2024-01-16T03:45:34;10.93;;;5.53;;
3653;SDS011;70277;54.302;10.064;2024-01-16T03:48:01;11.30;;;5.43;;
3653;SDS011;70277;54.302;10.064;2024-01-16T03:50:29;10.75;;;5.35;;
3653;SDS011;70277;54.302;10.064;2024-01-16T03:52:56;13.68;;;5.93;;
3653;SDS011;70277;54.302;10.064;2024-01-16T03:55:22;13.18;;;6.03;;
3653;SDS011;70277;54.302;10.064;2024-01-16T03:57:49;10.95;;;4.50;;
3653;SDS011;70277;54.302;10.064;2024-01-16T04:00:17;10.45;;;5.95;;
3653;SDS011;70277;54.302;10.064;2024-01-16T04:02:43;9.15;;;5.38;;
3653;SDS011;70277;54.302;10.064;2024-01-16T04:05:10;12.35;;;5.95;;
3653;SDS011;70277;54.302;10.064;2024-01-16T04:07:37;11.05;;;5.65;;
3653;SDS011;70277;54.302;10.064;2024-01-16T04:10:05;8.85;;;4.85;;
3653;SDS011;70277;54.302;10.064;2024-01-16T04:12:32;10.45;;;6.05;;
3653;SDS011;70277;54.302;10.064;2024-01-16T04:14:59;11.68;;;5.50;;
3653;SDS011;70277;54.302;10.064;2024-01-16T04:17:25;9.57;;;5.30;;
3653;SDS011;70277;54.302;10.064;2024-01-16T04:19:52;8.88;;;4.95;;
3653;SDS011;70277;54.302;10.064;2024-01-16T04:22:18;15.55;;;5.97;;
3653;SDS011;70277;54.302;10.064;2024-01-16T04:24:45;8.38;;;4.70;;
3653;SDS011;70277;54.302;10.064;2024-01-16T04:27:13;9.00;;;5.38;;
3653;SDS011;70277;54.302;10.064;2024-01-16T04:29:39;12.60;;;5.20;;
3653;SDS011;70277;54.302;10.064;2024-01-16T04:32:06;7.43;;;4.38;;
3653;SDS011;70277;54.302;10.064;2024-01-16T04:34:32;6.00;;;4.30;;
3653;SDS011;70277;54.302;10.064;2024-01-16T04:37:00;9.73;;;5.35;;
3653;SDS011;70277;54.302;10.064;2024-01-16T04:39:27;9.13;;;5.50;;
3653;SDS011;70277;54.302;10.064;2024-01-16T04:41:53;14.10;;;5.15;;
3653;SDS011;70277;54.302;10.064;2024-01-16T04:44:20;13.18;;;6.75;;
3653;SDS011;70277;54.302;10.064;2024-01-16T04:46:47;13.02;;;6.20;;
3653;SDS011;70277;54.302;10.064;2024-01-16T04:49:13;12.73;;;6.68;;
3653;SDS011;70277;54.302;10.064;2024-01-16T04:51:40;11.88;;;6.35;;
3653;SDS011;70277;54.302;10.064;2024-01-16T04:54:07;14.13;;;6.80;;
3653;SDS011;70277;54.302;10.064;2024-01-16T04:56:33;15.80;;;7.10;;
3653;SDS011;70277;54.302;10.064;2024-01-16T04:59:00;14.20;;;6.90;;
3653;SDS011;70277;54.302;10.064;2024-01-16T05:01:27;15.43;;;6.22;;
3653;SDS011;70277;54.302;10.064;2024-01-16T05:03:53;14.35;;;7.32;;
3653;SDS011;70277;54.302;10.064;2024-01-16T05:06:21;16.73;;;7.30;;
3653;SDS011;70277;54.302;10.064;2024-01-16T05:08:47;15.93;;;7.32;;
3653;SDS011;70277;54.302;10.064;2024-01-16T05:11:15;19.98;;;8.02;;
3653;SDS011;70277;54.302;10.064;2024-01-16T05:13:41;20.20;;;8.23;;
3653;SDS011;70277;54.302;10.064;2024-01-16T05:16:08;17.35;;;8.38;;
3653;SDS011;70277;54.302;10.064;2024-01-16T05:18:35;25.65;;;9.27;;
3653;SDS011;70277;54.302;10.064;2024-01-16T05:21:02;18.88;;;7.90;;
3653;SDS011;70277;54.302;10.064;2024-01-16T05:23:30;18.27;;;8.80;;
3653;SDS011;70277;54.302;10.064;2024-01-16T05:25:57;18.17;;;8.30;;
3653;SDS011;70277;54.302;10.064;2024-01-16T05:28:24;17.67;;;8.82;;
3653;SDS011;70277;54.302;10.064;2024-01-16T05:30:50;24.65;;;9.93;;
3653;SDS011;70277;54.302;10.064;2024-01-16T05:33:17;20.38;;;9.13;;
3653;SDS011;70277;54.302;10.064;2024-01-16T05:35:44;21.75;;;8.90;;
3653;SDS011;70277;54.302;10.064;2024-01-16T05:38:10;24.35;;;10.32;;
3653;SDS011;70277;54.302;10.064;2024-01-16T05:40:38;25.80;;;9.98;;
3653;SDS011;70277;54.302;10.064;2024-01-16T05:43:06;15.98;;;8.30;;
3653;SDS011;70277;54.302;10.064;2024-01-16T05:45:32;22.40;;;10.02;;
3653;SDS011;70277;54.302;10.064;2024-01-16T05:47:59;20.80;;;9.07;;
3653;SDS011;70277;54.302;10.064;2024-01-16T05:50:26;18.65;;;8.82;;
3653;SDS011;70277;54.302;10.064;2024-01-16T05:52:52;20.98;;;9.43;;
3653;SDS011;70277;54.302;10.064;2024-01-16T05:55:19;19.48;;;9.10;;
3653;SDS011;70277;54.302;10.064;2024-01-16T05:57:47;23.50;;;9.35;;
3653;SDS011;70277;54.302;10.064;2024-01-16T06:00:14;23.00;;;9.93;;
3653;SDS011;70277;54.302;10.064;2024-01-16T06:02:41;23.15;;;9.63;;
3653;SDS011;70277;54.302;10.064;2024-01-16T06:05:07;17.25;;;8.10;;
3653;SDS011;70277;54.302;10.064;2024-01-16T06:07:34;18.80;;;8.73;;
3653;SDS011;70277;54.302;10.064;2024-01-16T06:10:01;19.75;;;8.82;;
3653;SDS011;70277;54.302;10.064;2024-01-16T06:12:29;20.52;;;9.25;;
3653;SDS011;70277;54.302;10.064;2024-01-16T06:14:55;18.45;;;8.45;;
3653;SDS011;70277;54.302;10.064;2024-01-16T06:17:24;23.90;;;8.45;;
3653;SDS011;70277;54.302;10.064;2024-01-16T06:19:50;19.63;;;8.52;;
3653;SDS011;70277;54.302;10.064;2024-01-16T06:22:17;23.48;;;9.88;;
3653;SDS011;70277;54.302;10.064;2024-01-16T06:24:43;19.48;;;8.40;;
3653;SDS011;70277;54.302;10.064;2024-01-16T06:27:10;19.83;;;9.20;;
3653;SDS011;70277;54.302;10.064;2024-01-16T06:29:36;21.13;;;8.98;;
3653;SDS011;70277;54.302;10.064;2024-01-16T06:32:03;20.98;;;8.85;;
3653;SDS011;70277;54.302;10.064;2024-01-16T06:34:30;18.35;;;9.02;;
3653;SDS011;70277;54.302;10.064;2024-01-16T06:36:57;27.10;;;9.10;;
3653;SDS011;70277;54.302;10.064;2024-01-16T06:39:23;14.90;;;7.15;;
3653;SDS011;70277;54.302;10.064;2024-01-16T06:41:50;18.88;;;8.25;;
3653;SDS011;70277;54.302;10.064;2024-01-16T06:44:17;26.15;;;8.32;;
3653;SDS011;70277;54.302;10.064;2024-01-16T06:46:45;14.82;;;7.80;;
3653;SDS011;70277;54.302;10.064;2024-01-16T06:49:12;18.85;;;9.48;;
3653;SDS011;70277;54.302;10.064;2024-01-16T06:51:38;22.13;;;8.10;;
3653;SDS011;70277;54.302;10.064;2024-01-16T06:54:05;21.35;;;7.22;;
3653;SDS011;70277;54.302;10.064;2024-01-16T06:56:32;17.77;;;7.78;;
3653;SDS011;70277;54.302;10.064;2024-01-16T06:58:58;18.80;;;7.22;;
3653;SDS011;70277;54.302;10.064;2024-01-16T07:01:25;14.63;;;7.15;;
3653;SDS011;70277;54.302;10.064;2024-01-16T07:03:52;16.83;;;7.47;;
3653;SDS011;70277;54.302;10.064;2024-01-16T07:06:19;14.32;;;6.93;;
3653;SDS011;70277;54.302;10.064;2024-01-16T07:08:46;16.00;;;8.05;;
3653;SDS011;70277;54.302;10.064;2024-01-16T07:11:12;16.70;;;7.18;;
3653;SDS011;70277;54.302;10.064;2024-01-16T07:13:40;15.07;;;7.55;;
3653;SDS011;70277;54.302;10.064;2024-01-16T07:16:10;18.25;;;7.43;;
3653;SDS011;70277;54.302;10.064;2024-01-16T07:18:37;15.10;;;7.82;;
3653;SDS011;70277;54.302;10.064;2024-01-16T07:21:04;15.25;;;6.80;;
3653;SDS011;70277;54.302;10.064;2024-01-16T07:23:42;17.05;;;7.13;;
3653;SDS011;70277;54.302;10.064;2024-01-16T07:26:08;14.00;;;7.05;;
3653;SDS011;70277;54.302;10.064;2024-01-16T07:28:35;14.38;;;7.22;;
3653;SDS011;70277;54.302;10.064;2024-01-16T07:31:01;14.65;;;8.48;;
3653;SDS011;70277;54.302;10.064;2024-01-16T07:33:28;15.80;;;7.50;;
3653;SDS011;70277;54.302;10.064;2024-01-16T07:35:55;11.48;;;6.25;;
3653;SDS011;70277;54.302;10.064;2024-01-16T07:38:21;13.77;;;6.32;;
3653;SDS011;70277;54.302;10.064;2024-01-16T07:40:48;19.15;;;7.18;;
3653;SDS011;70277;54.302;10.064;2024-01-16T07:43:15;16.25;;;6.95;;
3653;SDS011;70277;54.302;10.064;2024-01-16T07:45:42;15.68;;;8.20;;
3653;SDS011;70277;54.302;10.064;2024-01-16T07:48:08;16.45;;;7.32;;
3653;SDS011;70277;54.302;10.064;2024-01-16T07:50:35;14.38;;;7.55;;
3653;SDS011;70277;54.302;10.064;2024-01-16T07:53:01;16.50;;;7.22;;
3653;SDS011;70277;54.302;10.064;2024-01-16T07:55:28;12.95;;;7.10;;
3653;SDS011;70277;54.302;10.064;2024-01-16T07:57:54;15.23;;;7.07;;
3653;SDS011;70277;54.302;10.064;2024-01-16T08:00:21;13.43;;;6.88;;
3653;SDS011;70277;54.302;10.064;2024-01-16T08:02:48;12.68;;;7.18;;
3653;SDS011;70277;54.302;10.064;2024-01-16T08:05:15;14.05;;;7.03;;
3653;SDS011;70277;54.302;10.064;2024-01-16T08:07:42;15.88;;;7.38;;
3653;SDS011;70277;54.302;10.064;2024-01-16T08:10:09;13.50;;;7.43;;
3653;SDS011;70277;54.302;10.064;2024-01-16T08:12:36;18.65;;;7.65;;
3653;SDS011;70277;54.302;10.064;2024-01-16T08:15:04;15.50;;;6.80;;
3653;SDS011;70277;54.302;10.064;2024-01-16T08:17:31;13.95;;;6.95;;
3653;SDS011;70277;54.302;10.064;2024-01-16T08:19:58;13.73;;;7.15;;
3653;SDS011;70277;54.302;10.064;2024-01-16T08:22:24;15.15;;;6.85;;
3653;SDS011;70277;54.302;10.064;2024-01-16T08:24:51;13.50;;;7.18;;
3653;SDS011;70277;54.302;10.064;2024-01-16T08:27:18;17.08;;;7.30;;
3653;SDS011;70277;54.302;10.064;2024-01-16T08:29:45;13.18;;;6.85;;
3653;SDS011;70277;54.302;10.064;2024-01-16T08:32:14;15.02;;;7.40;;
3653;SDS011;70277;54.302;10.064;2024-01-16T08:34:41;13.77;;;7.25;;
3653;SDS011;70277;54.302;10.064;2024-01-16T08:37:08;16.02;;;8.25;;
3653;SDS011;70277;54.302;10.064;2024-01-16T08:39:35;13.75;;;7.70;;
3653;SDS011;70277;54.302;10.064;2024-01-16T08:42:02;13.32;;;7.15;;
3653;SDS011;70277;54.302;10.064;2024-01-16T08:44:29;11.52;;;6.35;;
3653;SDS011;70277;54.302;10.064;2024-01-16T08:46:55;16.90;;;8.10;;
3653;SDS011;70277;54.302;10.064;2024-01-16T08:49:23;12.63;;;7.40;;
3653;SDS011;70277;54.302;10.064;2024-01-16T08:51:50;17.55;;;7.72;;
3653;SDS011;70277;54.302;10.064;2024-01-16T08:54:17;13.77;;;7.20;;
3653;SDS011;70277;54.302;10.064;2024-01-16T08:56:43;12.38;;;7.18;;
3653;SDS011;70277;54.302;10.064;2024-01-16T08:59:10;15.90;;;8.32;;
3653;SDS011;70277;54.302;10.064;2024-01-16T09:01:36;16.35;;;7.50;;
3653;SDS011;70277;54.302;10.064;2024-01-16T09:04:03;15.00;;;7.93;;
3653;SDS011;70277;54.302;10.064;2024-01-16T09:06:30;14.32;;;7.40;;
3653;SDS011;70277;54.302;10.064;2024-01-16T09:08:56;18.63;;;7.55;;
3653;SDS011;70277;54.302;10.064;2024-01-16T09:11:23;11.65;;;7.05;;
3653;SDS011;70277;54.302;10.064;2024-01-16T09:13:49;11.68;;;6.68;;
3653;SDS011;70277;54.302;10.064;2024-01-16T09:16:16;11.82;;;6.93;;
3653;SDS011;70277;54.302;10.064;2024-01-16T09:18:42;12.98;;;7.57;;
3653;SDS011;70277;54.302;10.064;2024-01-16T09:21:09;16.58;;;7.85;;
3653;SDS011;70277;54.302;10.064;2024-01-16T09:23:36;14.50;;;7.30;;
3653;SDS011;70277;54.302;10.064;2024-01-16T09:26:02;11.68;;;7.30;;
3653;SDS011;70277;54.302;10.064;2024-01-16T09:28:29;15.55;;;7.63;;
3653;SDS011;70277;54.302;10.064;2024-01-16T09:30:55;16.80;;;7.88;;
3653;SDS011;70277;54.302;10.064;2024-01-16T09:33:25;13.38;;;7.32;;
3653;SDS011;70277;54.302;10.064;2024-01-16T09:35:52;17.00;;;7.77;;
3653;SDS011;70277;54.302;10.064;2024-01-16T09:38:19;15.25;;;7.57;;
3653;SDS011;70277;54.302;10.064;2024-01-16T09:40:48;13.35;;;7.03;;
3653;SDS011;70277;54.302;10.064;2024-01-16T09:43:17;20.58;;;7.53;;
3653;SDS011;70277;54.302;10.064;2024-01-16T09:45:43;14.38;;;8.57;;
3653;SDS011;70277;54.302;10.064;2024-01-16T09:48:13;18.35;;;7.90;;
3653;SDS011;70277;54.302;10.064;2024-01-16T09:50:41;15.77;;;6.90;;
3653;SDS011;70277;54.302;10.064;2024-01-16T09:53:07;14.15;;;7.15;;
3653;SDS011;70277;54.302;10.064;2024-01-16T09:55:34;17.92;;;7.30;;
3653;SDS011;70277;54.302;10.064;2024-01-16T09:58:00;15.43;;;7.28;;
3653;SDS011;70277;54.302;10.064;2024-01-16T10:00:29;14.13;;;6.45;;
3653;SDS011;70277;54.302;10.064;2024-01-16T10:02:57;15.02;;;7.15;;
3653;SDS011;70277;54.302;10.064;2024-01-16T10:05:26;12.93;;;7.22;;
3653;SDS011;70277;54.302;10.064;2024-01-16T10:07:52;14.88;;;7.03;;
3653;SDS011;70277;54.302;10.064;2024-01-16T10:10:20;17.88;;;7.93;;
3653;SDS011;70277;54.302;10.064;2024-01-16T10:13:03;17.40;;;6.88;;
3653;SDS011;70277;54.302;10.064;2024-01-16T10:15:31;20.63;;;9.35;;
3653;SDS011;70277;54.302;10.064;2024-01-16T10:17:57;11.10;;;6.95;;
3653;SDS011;70277;54.302;10.064;2024-01-16T10:20:32;11.25;;;7.15;;
3653;SDS011;70277;54.302;10.064;2024-01-16T10:23:00;16.02;;;7.03;;
3653;SDS011;70277;54.302;10.064;2024-01-16T10:25:29;12.40;;;6.38;;
3653;SDS011;70277;54.302;10.064;2024-01-16T10:28:02;13.75;;;7.00;;
3653;SDS011;70277;54.302;10.064;2024-01-16T10:30:31;11.68;;;6.75;;
3653;SDS011;70277;54.302;10.064;2024-01-16T10:33:01;11.20;;;5.55;;
3653;SDS011;70277;54.302;10.064;2024-01-16T10:35:39;20.70;;;8.63;;
3653;SDS011;70277;54.302;10.064;2024-01-16T10:38:06;15.52;;;6.93;;
3653;SDS011;70277;54.302;10.064;2024-01-16T10:40:32;10.30;;;5.90;;
3653;SDS011;70277;54.302;10.064;2024-01-16T10:43:01;10.07;;;5.22;;
3653;SDS011;70277;54.302;10.064;2024-01-16T10:45:29;8.75;;;4.47;;
3653;SDS011;70277;54.302;10.064;2024-01-16T10:48:01;14.27;;;4.50;;
3653;SDS011;70277;54.302;10.064;2024-01-16T10:50:30;7.63;;;4.78;;
3653;SDS011;70277;54.302;10.064;2024-01-16T10:52:59;8.15;;;5.03;;
3653;SDS011;70277;54.302;10.064;2024-01-16T10:55:27;9.63;;;4.70;;
3653;SDS011;70277;54.302;10.064;2024-01-16T10:57:56;10.40;;;5.18;;
3653;SDS011;70277;54.302;10.064;2024-01-16T11:00:23;9.20;;;5.13;;
3653;SDS011;70277;54.302;10.064;2024-01-16T11:03:05;10.48;;;4.63;;
3653;SDS011;70277;54.302;10.064;2024-01-16T11:05:33;13.18;;;4.70;;
3653;SDS011;70277;54.302;10.064;2024-01-16T11:08:02;10.98;;;4.32;;
3653;SDS011;70277;54.302;10.064;2024-01-16T11:10:32;6.68;;;4.28;;
3653;SDS011;70277;54.302;10.064;2024-01-16T11:13:01;9.05;;;4.00;;
3653;SDS011;70277;54.302;10.064;2024-01-16T11:15:29;6.68;;;3.90;;
3653;SDS011;70277;54.302;10.064;2024-01-16T11:17:56;7.70;;;3.88;;
3653;SDS011;70277;54.302;10.064;2024-01-16T11:20:23;9.85;;;3.75;;
3653;SDS011;70277;54.302;10.064;2024-01-16T11:23:11;9.60;;;3.78;;
3653;SDS011;70277;54.302;10.064;2024-01-16T11:25:39;11.18;;;3.58;;
3653;SDS011;70277;54.302;10.064;2024-01-16T11:28:07;7.25;;;3.42;;
3653;SDS011;70277;54.302;10.064;2024-01-16T11:30:42;9.55;;;3.47;;
3653;SDS011;70277;54.302;10.064;2024-01-16T11:35:59;6.47;;;2.63;;
3653;SDS011;70277;54.302;10.064;2024-01-16T11:38:26;8.10;;;2.53;;
3653;SDS011;70277;54.302;10.064;2024-01-16T11:40:53;6.47;;;3.13;;
3653;SDS011;70277;54.302;10.064;2024-01-16T11:45:59;6.05;;;2.35;;
3653;SDS011;70277;54.302;10.064;2024-01-16T11:48:27;9.32;;;3.45;;
3653;SDS011;70277;54.302;10.064;2024-01-16T11:50:54;5.15;;;2.35;;
3653;SDS011;70277;54.302;10.064;2024-01-16T12:01:57;4.25;;;1.95;;
3653;SDS011;70277;54.302;10.064;2024-01-16T12:04:29;8.52;;;2.35;;
3653;SDS011;70277;54.302;10.064;2024-01-16T12:06:58;7.38;;;1.85;;
3653;SDS011;70277;54.302;10.064;2024-01-16T12:09:27;6.45;;;1.88;;
3653;SDS011;70277;54.302;10.064;2024-01-16T12:12:01;6.15;;;1.55;;
3653;SDS011;70277;54.302;10.064;2024-01-16T12:14:29;3.60;;;1.42;;
3653;SDS011;70277;54.302;10.064;2024-01-16T12:17:12;6.57;;;1.55;;
3653;SDS011;70277;54.302;10.064;2024-01-16T12:19:40;8.40;;;2.20;;
3653;SDS011;70277;54.302;10.064;2024-01-16T12:22:09;2.10;;;1.10;;
3653;SDS011;70277;54.302;10.064;2024-01-16T12:24:36;4.88;;;1.00;;
3653;SDS011;70277;54.302;10.064;2024-01-16T12:27:04;4.25;;;1.50;;
3653;SDS011;70277;54.302;10.064;2024-01-16T12:29:31;7.05;;;1.10;;
3653;SDS011;70277;54.302;10.064;2024-01-16T12:32:07;6.00;;;1.30;;
3653;SDS011;70277;54.302;10.064;2024-01-16T12:34:43;5.80;;;2.20;;
3653;SDS011;70277;54.302;10.064;2024-01-16T12:37:12;4.55;;;1.35;;
3653;SDS011;70277;54.302;10.064;2024-01-16T12:39:39;4.80;;;2.05;;
3653;SDS011;70277;54.302;10.064;2024-01-16T12:42:08;3.95;;;1.55;;
3653;SDS011;70277;54.302;10.064;2024-01-16T12:44:36;5.68;;;1.85;;
3653;SDS011;70277;54.302;10.064;2024-01-16T12:47:02;8.02;;;1.70;;
3653;SDS011;70277;54.302;10.064;2024-01-16T12:49:29;6.20;;;1.80;;
3653;SDS011;70277;54.302;10.064;2024-01-16T12:57:21;5.95;;;1.23;;
3653;SDS011;70277;54.302;10.064;2024-01-16T12:59:48;6.43;;;1.83;;
3653;SDS011;70277;54.302;10.064;2024-01-16T13:02:22;2.13;;;1.10;;
3653;SDS011;70277;54.302;10.064;2024-01-16T13:04:57;5.38;;;0.95;;
3653;SDS011;70277;54.302;10.064;2024-01-16T13:07:29;10.65;;;3.42;;
3653;SDS011;70277;54.302;10.064;2024-01-16T13:10:11;7.38;;;1.83;;
3653;SDS011;70277;54.302;10.064;2024-01-16T13:12:39;17.70;;;3.92;;
3653;SDS011;70277;54.302;10.064;2024-01-16T13:15:06;9.18;;;2.05;;
3653;SDS011;70277;54.302;10.064;2024-01-16T13:17:36;2.47;;;0.85;;
3653;SDS011;70277;54.302;10.064;2024-01-16T13:20:03;17.73;;;3.00;;
3653;SDS011;70277;54.302;10.064;2024-01-16T13:22:33;14.68;;;2.28;;
3653;SDS011;70277;54.302;10.064;2024-01-16T13:25:11;9.63;;;1.92;;
3653;SDS011;70277;54.302;10.064;2024-01-16T13:27:38;6.13;;;1.92;;
3653;SDS011;70277;54.302;10.064;2024-01-16T13:30:04;2.33;;;1.00;;
3653;SDS011;70277;54.302;10.064;2024-01-16T13:32:32;3.97;;;1.38;;
3653;SDS011;70277;54.302;10.064;2024-01-16T13:35:03;6.35;;;1.77;;
3653;SDS011;70277;54.302;10.064;2024-01-16T13:40:04;6.50;;;2.85;;
3653;SDS011;70277;54.302;10.064;2024-01-16T13:42:35;6.40;;;3.10;;
3653;SDS011;70277;54.302;10.064;2024-01-16T13:45:01;3.42;;;2.78;;
3653;SDS011;70277;54.302;10.064;2024-01-16T13:47:30;7.07;;;2.45;;
3653;SDS011;70277;54.302;10.064;2024-01-16T13:49:57;6.68;;;3.58;;
3653;SDS011;70277;54.302;10.064;2024-01-16T13:52:23;3.97;;;1.75;;
3653;SDS011;70277;54.302;10.064;2024-01-16T13:54:53;8.73;;;2.10;;
3653;SDS011;70277;54.302;10.064;2024-01-16T13:57:20;11.50;;;3.88;;
3653;SDS011;70277;54.302;10.064;2024-01-16T13:59:47;1.50;;;0.90;;
3653;SDS011;70277;54.302;10.064;2024-01-16T14:02:13;6.95;;;2.90;;
3653;SDS011;70277;54.302;10.064;2024-01-16T14:04:40;4.20;;;2.63;;
3653;SDS011;70277;54.302;10.064;2024-01-16T14:07:07;3.67;;;1.08;;
3653;SDS011;70277;54.302;10.064;2024-01-16T14:09:39;6.47;;;1.13;;
3653;SDS011;70277;54.302;10.064;2024-01-16T14:12:09;3.55;;;1.02;;
3653;SDS011;70277;54.302;10.064;2024-01-16T14:14:35;2.70;;;1.02;;
3653;SDS011;70277;54.302;10.064;2024-01-16T14:17:04;8.07;;;0.80;;
3653;SDS011;70277;54.302;10.064;2024-01-16T14:19:31;4.63;;;1.33;;
3653;SDS011;70277;54.302;10.064;2024-01-16T14:22:00;0.90;;;0.60;;
3653;SDS011;70277;54.302;10.064;2024-01-16T14:24:27;7.20;;;1.20;;
3653;SDS011;70277;54.302;10.064;2024-01-16T14:26:53;1.98;;;1.10;;
3653;SDS011;70277;54.302;10.064;2024-01-16T14:29:22;8.48;;;2.30;;
3653;SDS011;70277;54.302;10.064;2024-01-16T14:31:49;9.00;;;2.53;;
3653;SDS011;70277;54.302;10.064;2024-01-16T14:34:16;8.95;;;2.33;;
3653;SDS011;70277;54.302;10.064;2024-01-16T14:36:45;4.25;;;2.60;;
3653;SDS011;70277;54.302;10.064;2024-01-16T14:39:12;11.63;;;2.55;;
3653;SDS011;70277;54.302;10.064;2024-01-16T14:41:48;5.10;;;1.38;;
3653;SDS011;70277;54.302;10.064;2024-01-16T14:44:14;4.28;;;0.80;;
3653;SDS011;70277;54.302;10.064;2024-01-16T14:46:41;10.85;;;1.00;;
3653;SDS011;70277;54.302;10.064;2024-01-16T14:49:13;3.30;;;0.90;;
3653;SDS011;70277;54.302;10.064;2024-01-16T14:51:40;4.15;;;0.90;;
3653;SDS011;70277;54.302;10.064;2024-01-16T14:54:07;2.65;;;1.05;;
3653;SDS011;70277;54.302;10.064;2024-01-16T14:56:35;8.85;;;0.90;;
3653;SDS011;70277;54.302;10.064;2024-01-16T14:59:01;5.57;;;1.40;;
3653;SDS011;70277;54.302;10.064;2024-01-16T15:01:29;3.60;;;1.00;;
3653;SDS011;70277;54.302;10.064;2024-01-16T15:03:55;4.20;;;1.55;;
3653;SDS011;70277;54.302;10.064;2024-01-16T15:06:23;3.35;;;1.65;;